createdAt,value
2022-11-16T00:02:13.147Z,7.43
2022-11-16T00:04:39.998Z,7.30
2022-11-16T00:07:06.658Z,6.35
2022-11-16T00:09:33.698Z,6.88
2022-11-16T00:12:05.863Z,6.53
2022-11-16T00:14:34.747Z,6.47
2022-11-16T00:17:01.963Z,6.53
2022-11-16T00:19:29.158Z,7.30
2022-11-16T00:21:55.988Z,6.68
2022-11-16T00:24:23.705Z,7.28
2022-11-16T00:26:51.080Z,6.90
2022-11-16T00:29:20.532Z,6.68
2022-11-16T00:31:48.121Z,6.47
2022-11-16T00:34:15.103Z,7.93
2022-11-16T00:36:41.963Z,6.40
2022-11-16T00:39:12.110Z,6.17
2022-11-16T00:41:38.824Z,6.07
2022-11-16T00:44:05.488Z,6.05
2022-11-16T00:46:32.104Z,6.63
2022-11-16T00:48:58.596Z,6.47
2022-11-16T00:51:25.194Z,5.90
2022-11-16T00:53:51.761Z,6.47
2022-11-16T00:56:18.274Z,6.95
2022-11-16T00:58:44.794Z,6.63
2022-11-16T01:01:12.337Z,6.40
2022-11-16T01:03:39.382Z,6.10
2022-11-16T01:06:08.964Z,6.45
2022-11-16T01:08:37.250Z,6.55
2022-11-16T01:11:23.675Z,6.65
2022-11-16T01:13:50.183Z,6.15
2022-11-16T01:16:18.644Z,5.80
2022-11-16T01:18:49.738Z,5.85
2022-11-16T01:21:16.785Z,6.47
2022-11-16T01:23:43.452Z,5.35
2022-11-16T01:26:10.023Z,5.95
2022-11-16T01:28:36.852Z,6.50
2022-11-16T01:31:04.157Z,6.07
2022-11-16T01:33:30.923Z,5.93
2022-11-16T01:35:57.411Z,6.45
2022-11-16T01:38:29.355Z,7.00
2022-11-16T01:40:56.460Z,7.43
2022-11-16T01:43:25.489Z,7.45
2022-11-16T01:45:52.765Z,7.07
2022-11-16T01:48:30.196Z,8.55
2022-11-16T01:50:59.838Z,8.02
2022-11-16T01:53:26.558Z,6.83
2022-11-16T01:55:53.331Z,7.90
2022-11-16T01:58:23.169Z,7.22
2022-11-16T02:00:50.086Z,7.30
2022-11-16T02:03:22.348Z,6.93
2022-11-16T02:06:24.825Z,8.33
2022-11-16T02:09:27.992Z,7.60
2022-11-16T02:12:17.568Z,7.53
2022-11-16T02:15:21.394Z,6.45
2022-11-16T02:18:03.326Z,6.70
2022-11-16T02:21:00.518Z,7.10
2022-11-16T02:23:56.017Z,6.28
2022-11-16T02:26:42.046Z,6.90
2022-11-16T02:29:23.039Z,6.57
2022-11-16T02:31:59.164Z,6.75
2022-11-16T02:34:31.883Z,6.23
2022-11-16T02:37:01.724Z,6.10
2022-11-16T02:39:32.248Z,5.88
2022-11-16T02:42:01.373Z,5.70
2022-11-16T02:44:34.550Z,6.82
2022-11-16T02:47:05.663Z,5.57
2022-11-16T02:49:36.461Z,6.40
2022-11-16T02:52:04.131Z,6.63
2022-11-16T02:54:30.733Z,6.38
2022-11-16T02:57:03.114Z,7.30
2022-11-16T02:59:50.766Z,6.50
2022-11-16T03:02:41.997Z,7.43
2022-11-16T03:05:15.547Z,8.75
2022-11-16T03:07:52.386Z,8.48
2022-11-16T03:10:39.958Z,9.27
2022-11-16T03:13:10.424Z,9.80
2022-11-16T03:15:39.443Z,9.07
2022-11-16T03:18:08.646Z,9.30
2022-11-16T03:20:37.821Z,9.73
2022-11-16T03:23:09.015Z,10.43
2022-11-16T03:25:45.181Z,9.70
2022-11-16T03:28:47.755Z,9.60
2022-11-16T03:31:25.244Z,9.70
2022-11-16T03:33:57.509Z,9.70
2022-11-16T03:36:38.665Z,8.07
2022-11-16T03:39:19.702Z,8.80
2022-11-16T03:41:48.276Z,8.30
2022-11-16T03:44:17.330Z,7.90
2022-11-16T03:46:45.499Z,8.50
2022-11-16T03:49:12.441Z,8.40
2022-11-16T03:51:39.025Z,7.53
2022-11-16T03:54:05.810Z,8.02
2022-11-16T03:56:32.612Z,7.78
2022-11-16T03:58:59.140Z,6.35
2022-11-16T04:01:25.794Z,7.50
2022-11-16T04:03:52.388Z,5.43
2022-11-16T04:06:37.461Z,6.03
2022-11-16T04:09:22.894Z,4.30
2022-11-16T04:12:09.020Z,4.90
2022-11-16T04:14:54.279Z,4.57
2022-11-16T04:17:43.084Z,4.20
2022-11-16T04:20:30.159Z,3.15
2022-11-16T04:23:25.644Z,3.13
2022-11-16T04:25:53.265Z,2.60
2022-11-16T04:28:24.161Z,3.00
2022-11-16T04:31:11.998Z,1.70
2022-11-16T04:33:57.409Z,2.40
2022-11-16T04:36:43.097Z,2.95
2022-11-16T04:39:09.656Z,2.60
2022-11-16T04:41:54.980Z,2.75
2022-11-16T04:44:23.751Z,2.80
2022-11-16T04:47:08.991Z,3.03
2022-11-16T04:49:35.546Z,3.25
2022-11-16T04:52:02.139Z,3.30
2022-11-16T04:54:28.872Z,2.92
2022-11-16T04:56:56.513Z,3.30
2022-11-16T04:59:23.451Z,2.90
2022-11-16T05:02:08.339Z,2.67
2022-11-16T05:04:40.234Z,2.40
2022-11-16T05:07:11.920Z,2.90
2022-11-16T05:09:43.984Z,2.77
2022-11-16T05:12:17.020Z,2.38
2022-11-16T05:14:44.178Z,2.33
2022-11-16T05:17:11.219Z,3.38
2022-11-16T05:19:56.738Z,2.00
2022-11-16T05:22:24.052Z,2.10
2022-11-16T05:24:50.802Z,1.98
2022-11-16T05:27:18.968Z,1.98
2022-11-16T05:29:46.328Z,2.00
2022-11-16T05:32:13.340Z,2.47
2022-11-16T05:34:40.048Z,2.50
2022-11-16T05:37:06.951Z,2.17
2022-11-16T05:39:33.685Z,1.65
2022-11-16T05:42:00.231Z,2.22
2022-11-16T05:44:26.765Z,2.13
2022-11-16T05:46:56.730Z,1.70
2022-11-16T05:49:24.150Z,2.03
2022-11-16T05:51:51.117Z,2.55
2022-11-16T05:54:20.072Z,3.17
2022-11-16T05:56:48.336Z,2.45
2022-11-16T05:59:16.900Z,2.90
2022-11-16T06:01:43.883Z,1.92
2022-11-16T06:04:11.158Z,2.28
2022-11-16T06:06:38.265Z,2.90
2022-11-16T06:09:05.512Z,2.75
2022-11-16T06:11:36.142Z,3.17
2022-11-16T06:14:03.589Z,2.17
2022-11-16T06:16:30.154Z,2.38
2022-11-16T06:18:56.699Z,2.03
2022-11-16T06:21:23.421Z,2.97
2022-11-16T06:23:50.018Z,2.00
2022-11-16T06:26:16.812Z,2.13
2022-11-16T06:28:43.315Z,2.55
2022-11-16T06:31:09.898Z,2.47
2022-11-16T06:33:36.574Z,2.80
2022-11-16T06:36:03.397Z,2.30
2022-11-16T06:38:29.988Z,3.20
2022-11-16T06:40:58.935Z,3.13
2022-11-16T06:43:26.445Z,2.55
2022-11-16T06:45:56.284Z,3.92
2022-11-16T06:48:23.155Z,2.80
2022-11-16T06:50:51.011Z,2.67
2022-11-16T06:53:20.337Z,3.95
2022-11-16T06:55:48.432Z,3.83
2022-11-16T06:58:15.194Z,3.88
2022-11-16T07:00:41.807Z,3.47
2022-11-16T07:03:08.467Z,3.28
2022-11-16T07:05:39.673Z,3.40
2022-11-16T07:08:06.204Z,3.72
2022-11-16T07:10:32.861Z,3.53
2022-11-16T07:13:02.600Z,3.47
2022-11-16T07:15:29.158Z,3.63
2022-11-16T07:17:55.905Z,3.35
2022-11-16T07:20:23.140Z,3.35
2022-11-16T07:22:49.693Z,2.95
2022-11-16T07:25:16.344Z,2.87
2022-11-16T07:27:42.838Z,2.78
2022-11-16T07:30:09.869Z,3.63
2022-11-16T07:32:39.754Z,3.60
2022-11-16T07:35:06.752Z,2.55
2022-11-16T07:37:33.278Z,3.23
2022-11-16T07:39:59.795Z,3.33
2022-11-16T07:42:26.413Z,3.40
2022-11-16T07:44:52.879Z,3.35
2022-11-16T07:47:19.465Z,3.03
2022-11-16T07:49:48.467Z,3.03
2022-11-16T07:52:15.149Z,3.20
2022-11-16T07:54:41.668Z,3.17
2022-11-16T07:57:08.219Z,2.88
2022-11-16T07:59:34.931Z,3.17
2022-11-16T08:02:01.573Z,3.47
2022-11-16T08:04:28.284Z,3.67
2022-11-16T08:06:54.957Z,2.83
2022-11-16T08:09:21.536Z,3.00
2022-11-16T08:11:48.042Z,3.92
2022-11-16T08:14:15.765Z,3.40
2022-11-16T08:16:42.318Z,3.63
2022-11-16T08:19:08.913Z,3.58
2022-11-16T08:21:35.469Z,5.13
2022-11-16T08:24:02.493Z,3.72
2022-11-16T08:26:29.241Z,4.00
2022-11-16T08:28:57.243Z,3.08
2022-11-16T08:31:26.790Z,2.92
2022-11-16T08:33:53.398Z,3.28
2022-11-16T08:36:20.649Z,3.17
2022-11-16T08:38:48.790Z,3.67
2022-11-16T08:41:16.240Z,3.33
2022-11-16T08:43:44.496Z,3.35
2022-11-16T08:46:11.600Z,2.63
2022-11-16T08:48:38.659Z,3.00
2022-11-16T08:51:17.469Z,2.87
2022-11-16T08:53:44.374Z,3.00
2022-11-16T08:56:13.626Z,2.72
2022-11-16T08:58:43.579Z,3.10
2022-11-16T09:01:12.456Z,3.10
2022-11-16T09:03:39.694Z,4.70
2022-11-16T09:06:08.118Z,3.53
2022-11-16T09:08:37.551Z,2.92
2022-11-16T09:11:08.790Z,2.83
2022-11-16T09:13:35.387Z,2.65
2022-11-16T09:16:02.190Z,3.33
2022-11-16T09:18:29.287Z,3.00
2022-11-16T09:20:56.368Z,4.38
2022-11-16T09:23:25.511Z,2.65
2022-11-16T09:25:53.038Z,2.22
2022-11-16T09:28:20.585Z,2.13
2022-11-16T09:30:50.116Z,3.25
2022-11-16T09:33:17.216Z,2.53
2022-11-16T09:35:43.796Z,2.17
2022-11-16T09:38:12.658Z,2.35
2022-11-16T09:40:46.160Z,2.63
2022-11-16T09:43:30.620Z,1.90
2022-11-16T09:46:05.431Z,2.40
2022-11-16T09:48:37.829Z,2.20
2022-11-16T09:51:10.085Z,2.05
2022-11-16T09:53:42.558Z,1.90
2022-11-16T09:56:16.460Z,1.80
2022-11-16T09:59:15.185Z,1.85
2022-11-16T10:01:50.384Z,1.83
2022-11-16T10:04:47.260Z,2.22
2022-11-16T10:07:19.423Z,1.70
2022-11-16T10:09:46.943Z,1.50
2022-11-16T10:12:19.188Z,1.70
2022-11-16T10:15:07.913Z,2.40
2022-11-16T10:17:43.307Z,1.70
2022-11-16T10:20:37.766Z,2.27
2022-11-16T10:23:25.615Z,2.10
2022-11-16T10:26:21.623Z,3.88
2022-11-16T10:29:18.493Z,1.70
2022-11-16T10:31:51.012Z,1.58
2022-11-16T10:34:22.788Z,1.57
2022-11-16T10:36:49.411Z,2.00
2022-11-16T10:39:19.411Z,1.67
2022-11-16T10:41:50.829Z,1.83
2022-11-16T10:44:37.688Z,1.45
2022-11-16T10:47:17.099Z,1.90
2022-11-16T10:49:59.213Z,1.77
2022-11-16T10:52:25.707Z,1.65
2022-11-16T10:54:52.601Z,2.75
2022-11-16T10:57:19.570Z,1.52
2022-11-16T10:59:48.931Z,2.00
2022-11-16T11:02:37.389Z,1.80
2022-11-16T11:05:08.170Z,1.75
2022-11-16T11:07:40.163Z,1.30
2022-11-16T11:10:28.040Z,1.40
2022-11-16T11:13:25.891Z,1.37
2022-11-16T11:15:53.269Z,1.20
2022-11-16T11:18:27.718Z,1.77
2022-11-16T11:21:19.309Z,1.75
2022-11-16T11:23:50.786Z,1.52
2022-11-16T11:26:35.951Z,1.63
2022-11-16T11:29:17.063Z,1.58
2022-11-16T11:31:48.506Z,1.90
2022-11-16T11:34:22.055Z,1.48
2022-11-16T11:37:03.713Z,1.08
2022-11-16T11:39:36.521Z,1.33
2022-11-16T11:42:23.433Z,1.52
2022-11-16T11:44:58.729Z,1.20
2022-11-16T11:48:00.960Z,1.25
2022-11-16T11:50:33.311Z,1.80
2022-11-16T11:53:18.464Z,1.57
2022-11-16T11:55:44.949Z,1.73
2022-11-16T11:58:16.774Z,1.00
2022-11-16T12:01:02.126Z,1.10
2022-11-16T12:03:45.173Z,1.83
2022-11-16T12:06:21.923Z,1.43
2022-11-16T12:09:33.718Z,1.48
2022-11-16T12:12:21.032Z,2.13
2022-11-16T12:15:31.734Z,1.63
2022-11-16T12:18:13.140Z,1.88
2022-11-16T12:20:49.088Z,2.10
2022-11-16T12:23:21.386Z,1.27
2022-11-16T12:26:08.169Z,1.10
2022-11-16T12:28:59.904Z,1.25
2022-11-16T12:31:41.700Z,1.63
2022-11-16T12:34:13.402Z,1.00
2022-11-16T12:36:59.777Z,1.42
2022-11-16T12:39:40.805Z,1.88
2022-11-16T12:42:27.583Z,1.67
2022-11-16T12:45:06.470Z,1.05
2022-11-16T12:48:02.195Z,0.90
2022-11-16T12:50:40.789Z,1.05
2022-11-16T12:53:39.318Z,1.42
2022-11-16T12:56:38.358Z,0.70
2022-11-16T12:59:13.593Z,2.03
2022-11-16T13:02:13.244Z,1.07
2022-11-16T13:04:47.862Z,1.40
2022-11-16T13:07:23.219Z,1.15
2022-11-16T13:09:57.046Z,2.05
2022-11-16T13:12:25.515Z,1.23
2022-11-16T13:14:56.492Z,2.47
2022-11-16T13:17:27.615Z,1.08
2022-11-16T13:20:11.623Z,1.67
2022-11-16T13:22:55.739Z,1.50
2022-11-16T13:25:33.809Z,0.80
2022-11-16T13:28:32.128Z,1.07
2022-11-16T13:31:02.682Z,0.90
2022-11-16T13:33:53.479Z,1.10
2022-11-16T13:36:43.734Z,1.27
2022-11-16T13:39:21.830Z,1.20
2022-11-16T13:41:51.673Z,0.90
2022-11-16T13:44:25.988Z,0.93
2022-11-16T13:46:57.378Z,1.00
2022-11-16T13:49:32.162Z,1.30
2022-11-16T13:52:40.229Z,1.17
2022-11-16T13:55:01.688Z,1.83
2022-11-16T13:57:34.753Z,1.25
2022-11-16T14:00:01.226Z,0.70
2022-11-16T14:02:42.167Z,1.48
2022-11-16T14:05:36.665Z,1.33
2022-11-16T14:08:24.915Z,1.13
2022-11-16T14:10:51.346Z,2.47
2022-11-16T14:13:36.606Z,1.10
2022-11-16T14:16:21.839Z,1.48
2022-11-16T14:18:52.035Z,2.25
2022-11-16T14:22:09.795Z,1.43
2022-11-16T14:24:57.403Z,1.70
2022-11-16T14:27:49.390Z,3.20
2022-11-16T14:30:23.274Z,1.40
2022-11-16T14:32:52.939Z,3.53
2022-11-16T14:35:37.550Z,2.83
2022-11-16T14:38:29.527Z,3.20
2022-11-16T14:40:59.598Z,2.03
2022-11-16T14:43:43.197Z,3.63
2022-11-16T14:46:26.258Z,1.88
2022-11-16T14:48:56.051Z,1.63
2022-11-16T14:51:38.027Z,2.85
2022-11-16T14:54:14.673Z,1.42
2022-11-16T14:56:57.855Z,1.70
2022-11-16T14:59:24.581Z,5.57
2022-11-16T15:01:51.362Z,1.37
2022-11-16T15:04:18.933Z,1.40
2022-11-16T15:06:58.462Z,1.48
2022-11-16T15:09:35.658Z,1.50
2022-11-16T15:12:23.600Z,1.75
2022-11-16T15:14:53.137Z,1.63
2022-11-16T15:17:22.366Z,2.00
2022-11-16T15:19:56.045Z,1.90
2022-11-16T15:22:24.979Z,1.38
2022-11-16T15:24:57.390Z,1.98
2022-11-16T15:27:43.073Z,2.20
2022-11-16T15:30:17.372Z,1.40
2022-11-16T15:32:46.084Z,3.55
2022-11-16T15:35:20.069Z,2.70
2022-11-16T15:37:46.771Z,1.30
2022-11-16T15:40:14.579Z,4.53
2022-11-16T15:42:42.094Z,2.47
2022-11-16T15:45:22.755Z,2.42
2022-11-16T15:47:53.675Z,2.25
2022-11-16T15:50:23.375Z,3.55
2022-11-16T15:52:55.470Z,1.67
2022-11-16T15:55:39.499Z,2.28
2022-11-16T15:58:15.025Z,2.00
2022-11-16T16:00:42.263Z,3.15
2022-11-16T16:03:22.245Z,3.33
2022-11-16T16:05:49.445Z,2.37
2022-11-16T16:08:27.670Z,2.03
2022-11-16T16:11:09.437Z,2.08
2022-11-16T16:13:41.868Z,1.70
2022-11-16T16:16:12.617Z,1.83
2022-11-16T16:18:43.385Z,2.30
2022-11-16T16:21:11.073Z,1.98
2022-11-16T16:24:04.113Z,2.30
2022-11-16T16:26:30.684Z,2.97
2022-11-16T16:28:57.194Z,3.45
2022-11-16T16:31:23.742Z,3.70
2022-11-16T16:33:50.380Z,2.70
2022-11-16T16:36:17.125Z,3.50
2022-11-16T16:38:43.757Z,2.13
2022-11-16T16:41:24.295Z,2.97
2022-11-16T16:43:51.665Z,2.67
2022-11-16T16:46:18.176Z,2.70
2022-11-16T16:48:44.966Z,3.78
2022-11-16T16:51:12.923Z,4.30
2022-11-16T16:53:39.544Z,3.58
2022-11-16T16:56:12.572Z,2.60
2022-11-16T16:58:39.219Z,3.50
2022-11-16T17:01:06.414Z,4.13
2022-11-16T17:03:33.271Z,3.40
2022-11-16T17:06:02.015Z,2.67
2022-11-16T17:08:36.636Z,2.70
2022-11-16T17:11:04.281Z,2.10
2022-11-16T17:13:31.258Z,3.42
2022-11-16T17:15:57.976Z,3.33
2022-11-16T17:18:24.520Z,3.13
2022-11-16T17:20:51.032Z,3.13
2022-11-16T17:23:18.759Z,2.40
2022-11-16T17:25:45.284Z,4.43
2022-11-16T17:28:11.773Z,2.83
2022-11-16T17:30:38.305Z,3.22
2022-11-16T17:33:04.898Z,3.13
2022-11-16T17:35:31.460Z,3.50
2022-11-16T17:37:58.770Z,3.13
2022-11-16T17:40:25.324Z,4.50
2022-11-16T17:42:52.110Z,3.88
2022-11-16T17:45:18.696Z,2.40
2022-11-16T17:47:45.236Z,2.67
2022-11-16T17:50:12.097Z,2.55
2022-11-16T17:52:38.592Z,2.90
2022-11-16T17:55:05.770Z,3.10
2022-11-16T17:57:32.318Z,3.03
2022-11-16T17:59:58.872Z,3.15
2022-11-16T18:02:25.675Z,4.40
2022-11-16T18:04:52.282Z,2.40
2022-11-16T18:07:18.885Z,2.08
2022-11-16T18:09:45.450Z,3.23
2022-11-16T18:12:12.088Z,2.22
2022-11-16T18:14:38.677Z,2.38
2022-11-16T18:17:05.255Z,3.40
2022-11-16T18:19:31.755Z,3.95
2022-11-16T18:21:58.241Z,3.37
2022-11-16T18:24:24.766Z,3.85
2022-11-16T18:26:51.361Z,3.13
2022-11-16T18:29:19.266Z,3.72
2022-11-16T18:31:45.867Z,3.65
2022-11-16T18:34:14.432Z,3.43
2022-11-16T18:36:41.031Z,3.10
2022-11-16T18:39:08.236Z,4.32
2022-11-16T18:41:34.867Z,4.28
2022-11-16T18:44:02.382Z,3.92
2022-11-16T18:46:31.228Z,2.90
2022-11-16T18:48:58.053Z,2.88
2022-11-16T18:51:26.997Z,4.32
2022-11-16T18:53:53.667Z,2.70
2022-11-16T18:56:20.807Z,2.58
2022-11-16T18:58:52.247Z,5.00
2022-11-16T19:01:25.075Z,5.35
2022-11-16T19:03:53.656Z,7.63
2022-11-16T19:06:20.871Z,3.40
2022-11-16T19:08:54.054Z,3.42
2022-11-16T19:11:23.359Z,3.47
2022-11-16T19:13:57.783Z,5.35
2022-11-16T19:16:24.989Z,5.00
2022-11-16T19:18:51.771Z,2.90
2022-11-16T19:21:19.151Z,3.92
2022-11-16T19:23:47.667Z,5.77
2022-11-16T19:26:15.708Z,4.10
2022-11-16T19:28:44.381Z,4.05
2022-11-16T19:31:15.386Z,3.83
2022-11-16T19:33:42.545Z,3.45
2022-11-16T19:36:11.888Z,4.50
2022-11-16T19:38:39.205Z,3.88
2022-11-16T19:41:07.424Z,2.97
2022-11-16T19:43:34.608Z,3.25
2022-11-16T19:46:03.589Z,2.90
2022-11-16T19:48:32.172Z,2.73
2022-11-16T19:51:09.150Z,3.05
2022-11-16T19:53:36.935Z,2.90
2022-11-16T19:56:05.209Z,3.97
2022-11-16T19:58:34.273Z,3.03
2022-11-16T20:01:12.997Z,2.83
2022-11-16T20:03:41.816Z,2.75
2022-11-16T20:06:29.431Z,2.65
2022-11-16T20:09:02.071Z,2.40
2022-11-16T20:11:31.145Z,3.50
2022-11-16T20:13:58.675Z,2.10
2022-11-16T20:16:27.588Z,2.92
2022-11-16T20:18:57.069Z,2.70
2022-11-16T20:21:28.957Z,2.08
2022-11-16T20:24:01.563Z,2.67
2022-11-16T20:26:32.978Z,1.90
2022-11-16T20:28:59.908Z,2.50
2022-11-16T20:31:29.144Z,2.60
2022-11-16T20:34:01.400Z,2.08
2022-11-16T20:36:29.793Z,2.92
2022-11-16T20:38:57.348Z,2.00
2022-11-16T20:41:28.807Z,2.17
2022-11-16T20:43:57.368Z,2.63
2022-11-16T20:46:26.582Z,2.28
2022-11-16T20:48:53.475Z,1.92
2022-11-16T20:51:20.473Z,2.40
2022-11-16T20:53:48.298Z,2.42
2022-11-16T20:56:16.159Z,2.58
2022-11-16T20:58:43.098Z,2.35
2022-11-16T21:01:15.641Z,3.08
2022-11-16T21:03:44.410Z,2.30
2022-11-16T21:06:15.128Z,2.22
2022-11-16T21:08:42.129Z,2.22
2022-11-16T21:11:12.993Z,2.50
2022-11-16T21:13:58.339Z,3.22
2022-11-16T21:16:25.300Z,2.90
2022-11-16T21:18:53.518Z,3.58
2022-11-16T21:21:20.137Z,2.67
2022-11-16T21:23:51.622Z,3.22
2022-11-16T21:26:21.475Z,2.70
2022-11-16T21:28:48.400Z,2.30
2022-11-16T21:31:17.808Z,2.78
2022-11-16T21:33:45.738Z,4.13
2022-11-16T21:36:14.659Z,2.70
2022-11-16T21:38:41.784Z,2.70
2022-11-16T21:41:10.713Z,2.80
2022-11-16T21:43:38.072Z,2.47
2022-11-16T21:46:16.373Z,2.33
2022-11-16T21:48:43.576Z,3.10
2022-11-16T21:51:12.343Z,2.30
2022-11-16T21:53:39.546Z,2.07
2022-11-16T21:56:08.067Z,2.38
2022-11-16T21:58:34.622Z,2.17
2022-11-16T22:01:02.419Z,2.13
2022-11-16T22:03:30.881Z,2.47
2022-11-16T22:06:21.608Z,2.20
2022-11-16T22:08:48.544Z,2.70
2022-11-16T22:11:16.616Z,2.08
2022-11-16T22:13:43.804Z,2.80
2022-11-16T22:16:12.543Z,2.40
2022-11-16T22:18:39.472Z,2.47
2022-11-16T22:21:06.735Z,2.17
2022-11-16T22:23:34.674Z,2.08
2022-11-16T22:26:04.086Z,2.28
2022-11-16T22:28:32.569Z,2.15
2022-11-16T22:31:00.928Z,2.07
2022-11-16T22:33:28.200Z,2.50
2022-11-16T22:35:54.813Z,2.17
2022-11-16T22:38:21.574Z,2.03
2022-11-16T22:40:52.134Z,2.95
2022-11-16T22:43:20.998Z,2.03
2022-11-16T22:45:47.677Z,1.75
2022-11-16T22:48:14.458Z,2.00
2022-11-16T22:50:42.098Z,2.67
2022-11-16T22:53:09.797Z,2.30
2022-11-16T22:55:38.002Z,2.17
2022-11-16T22:58:05.508Z,2.10
2022-11-16T23:00:38.912Z,2.15
2022-11-16T23:03:05.609Z,1.75
2022-11-16T23:05:32.164Z,2.08
2022-11-16T23:07:58.735Z,2.57
2022-11-16T23:10:26.352Z,1.73
2022-11-16T23:13:12.397Z,2.20
2022-11-16T23:15:50.956Z,1.85
2022-11-16T23:18:19.589Z,2.40
2022-11-16T23:21:06.079Z,2.20
2022-11-16T23:23:51.011Z,1.70
2022-11-16T23:26:42.555Z,2.70
2022-11-16T23:29:10.939Z,2.20
2022-11-16T23:31:37.999Z,2.03
2022-11-16T23:34:05.159Z,2.47
2022-11-16T23:36:31.765Z,2.10
2022-11-16T23:38:58.250Z,2.15
2022-11-16T23:41:43.133Z,1.80
2022-11-16T23:44:09.913Z,1.75
2022-11-16T23:46:36.454Z,1.67
2022-11-16T23:49:03.093Z,1.60
2022-11-16T23:51:29.650Z,1.70
2022-11-16T23:53:56.482Z,1.50
2022-11-16T23:56:23.492Z,1.90
2022-11-16T23:58:50.229Z,1.97
